createdAt,value
2023-03-02T00:01:08.512Z,99.90
2023-03-02T00:03:36.150Z,99.90
2023-03-02T00:06:03.251Z,99.90
2023-03-02T00:08:29.903Z,99.90
2023-03-02T00:10:58.014Z,99.90
2023-03-02T00:13:24.677Z,99.90
2023-03-02T00:15:51.395Z,99.90
2023-03-02T00:18:18.086Z,99.90
2023-03-02T00:20:44.713Z,99.90
2023-03-02T00:23:11.509Z,99.90
2023-03-02T00:25:38.127Z,99.90
2023-03-02T00:28:04.801Z,99.90
2023-03-02T00:30:31.456Z,99.90
2023-03-02T00:32:58.516Z,99.90
2023-03-02T00:35:28.168Z,99.90
2023-03-02T00:37:54.829Z,99.90
2023-03-02T00:40:21.567Z,99.90
2023-03-02T00:42:48.224Z,99.90
2023-03-02T00:45:14.845Z,99.90
2023-03-02T00:47:42.442Z,99.90
2023-03-02T00:50:09.633Z,99.90
2023-03-02T00:52:36.302Z,99.90
2023-03-02T00:55:03.013Z,99.90
2023-03-02T00:57:29.670Z,99.90
2023-03-02T00:59:56.415Z,99.90
2023-03-02T01:02:23.257Z,99.90
2023-03-02T01:04:49.998Z,99.90
2023-03-02T01:07:17.974Z,99.90
2023-03-02T01:09:45.129Z,99.90
2023-03-02T01:12:12.223Z,99.90
2023-03-02T01:14:39.841Z,99.90
2023-03-02T01:17:06.950Z,99.90
2023-03-02T01:19:34.057Z,99.90
2023-03-02T01:22:00.734Z,99.90
2023-03-02T01:24:27.609Z,99.90
2023-03-02T01:26:54.262Z,99.90
2023-03-02T01:29:20.992Z,99.90
2023-03-02T01:31:47.737Z,99.90
2023-03-02T01:34:14.452Z,99.90
2023-03-02T01:36:41.267Z,99.90
2023-03-02T01:39:07.913Z,99.90
2023-03-02T01:41:34.697Z,99.90
2023-03-02T01:44:01.345Z,99.90
2023-03-02T01:46:29.834Z,99.90
2023-03-02T01:49:04.825Z,99.90
2023-03-02T01:51:34.631Z,99.90
2023-03-02T01:54:03.825Z,99.90
2023-03-02T01:56:32.503Z,99.90
2023-03-02T01:59:03.787Z,99.90
2023-03-02T02:01:31.850Z,99.90
2023-03-02T02:03:58.550Z,99.90
2023-03-02T02:06:31.903Z,99.90
2023-03-02T02:09:01.222Z,99.90
2023-03-02T02:11:27.952Z,99.90
2023-03-02T02:13:56.701Z,99.90
2023-03-02T02:16:23.486Z,99.90
2023-03-02T02:18:50.245Z,99.90
2023-03-02T02:21:17.872Z,99.90
2023-03-02T02:23:50.996Z,99.90
2023-03-02T02:26:29.177Z,99.90
2023-03-02T02:29:08.023Z,99.90
2023-03-02T02:32:05.142Z,99.90
2023-03-02T02:34:50.855Z,99.90
2023-03-02T02:37:17.454Z,99.90
2023-03-02T02:39:45.933Z,99.90
2023-03-02T02:42:14.802Z,99.90
2023-03-02T02:44:41.721Z,99.90
2023-03-02T02:47:19.963Z,99.90
2023-03-02T02:49:47.885Z,99.90
2023-03-02T02:52:16.961Z,99.90
2023-03-02T02:54:45.169Z,99.90
2023-03-02T02:57:12.670Z,99.90
2023-03-02T02:59:43.327Z,99.90
2023-03-02T03:02:15.275Z,99.90
2023-03-02T03:04:41.955Z,99.90
2023-03-02T03:07:10.406Z,99.90
2023-03-02T03:09:37.087Z,99.90
2023-03-02T03:12:24.025Z,99.90
2023-03-02T03:14:50.977Z,99.90
2023-03-02T03:17:17.735Z,99.90
2023-03-02T03:19:45.224Z,99.90
2023-03-02T03:22:13.060Z,99.90
2023-03-02T03:24:40.180Z,99.90
2023-03-02T03:27:08.013Z,99.90
2023-03-02T03:29:35.702Z,99.90
2023-03-02T03:32:03.449Z,99.90
2023-03-02T03:34:30.475Z,99.90
2023-03-02T03:37:02.064Z,99.90
2023-03-02T03:39:29.597Z,99.90
2023-03-02T03:41:57.314Z,99.90
2023-03-02T03:44:24.002Z,99.90
2023-03-02T03:46:50.749Z,99.90
2023-03-02T03:49:17.552Z,99.90
2023-03-02T03:51:44.451Z,99.90
2023-03-02T03:54:11.124Z,99.90
2023-03-02T03:56:39.705Z,99.90
2023-03-02T03:59:07.521Z,99.90
2023-03-02T04:01:35.617Z,99.90
2023-03-02T04:04:02.975Z,99.90
2023-03-02T04:06:29.852Z,99.90
2023-03-02T04:08:56.636Z,99.90
2023-03-02T04:11:23.385Z,99.90
2023-03-02T04:13:50.048Z,99.90
2023-03-02T04:16:16.718Z,99.90
2023-03-02T04:18:43.401Z,99.90
2023-03-02T04:21:10.072Z,99.90
2023-03-02T04:23:36.733Z,99.90
2023-03-02T04:26:05.150Z,99.90
2023-03-02T04:28:32.368Z,99.90
2023-03-02T04:30:59.057Z,99.90
2023-03-02T04:33:25.775Z,99.90
2023-03-02T04:35:54.540Z,99.90
2023-03-02T04:38:21.831Z,99.90
2023-03-02T04:40:48.698Z,99.90
2023-03-02T04:43:15.510Z,99.90
2023-03-02T04:45:42.159Z,99.90
2023-03-02T04:48:08.792Z,99.90
2023-03-02T04:50:35.543Z,99.90
2023-03-02T04:53:02.298Z,99.90
2023-03-02T04:55:28.925Z,99.90
2023-03-02T04:57:55.572Z,99.90
2023-03-02T05:00:22.237Z,99.90
2023-03-02T05:02:48.904Z,99.90
2023-03-02T05:05:20.699Z,99.90
2023-03-02T05:07:47.700Z,99.90
2023-03-02T05:10:15.334Z,99.90
2023-03-02T05:13:00.669Z,99.90
2023-03-02T05:15:29.171Z,99.90
2023-03-02T05:17:55.963Z,99.90
2023-03-02T05:20:27.469Z,99.90
2023-03-02T05:22:59.192Z,99.90
2023-03-02T05:25:26.879Z,99.90
2023-03-02T05:27:53.572Z,99.90
2023-03-02T05:30:20.681Z,99.90
2023-03-02T05:32:47.517Z,99.90
2023-03-02T05:35:14.347Z,99.90
2023-03-02T05:37:42.673Z,99.90
2023-03-02T05:40:09.710Z,99.90
2023-03-02T05:42:36.645Z,99.90
2023-03-02T05:45:06.670Z,99.90
2023-03-02T05:47:33.308Z,99.90
2023-03-02T05:49:59.928Z,99.90
2023-03-02T05:52:26.601Z,99.90
2023-03-02T05:54:53.221Z,99.90
2023-03-02T05:57:19.842Z,99.90
2023-03-02T05:59:46.522Z,99.90
2023-03-02T06:02:13.550Z,99.90
2023-03-02T06:04:43.138Z,99.90
2023-03-02T06:07:11.099Z,99.90
2023-03-02T06:09:38.541Z,99.90
2023-03-02T06:12:05.907Z,99.90
2023-03-02T06:14:32.665Z,99.90
2023-03-02T06:16:59.468Z,99.90
2023-03-02T06:19:26.258Z,99.90
2023-03-02T06:21:52.883Z,99.90
2023-03-02T06:24:19.640Z,99.90
2023-03-02T06:26:46.267Z,99.90
2023-03-02T06:29:13.347Z,99.90
2023-03-02T06:31:40.192Z,99.90
2023-03-02T06:34:06.851Z,99.90
2023-03-02T06:36:33.912Z,99.90
2023-03-02T06:39:00.777Z,99.90
2023-03-02T06:41:27.464Z,99.90
2023-03-02T06:43:54.081Z,99.90
2023-03-02T06:46:20.782Z,99.90
2023-03-02T06:48:47.480Z,99.90
2023-03-02T06:51:14.101Z,99.90
2023-03-02T06:53:40.770Z,99.90
2023-03-02T06:56:07.643Z,99.90
2023-03-02T06:58:34.410Z,99.90
2023-03-02T07:01:01.052Z,99.90
2023-03-02T07:03:27.748Z,99.90
2023-03-02T07:05:54.581Z,99.90
2023-03-02T07:08:21.305Z,99.90
2023-03-02T07:10:47.947Z,99.90
2023-03-02T07:13:14.600Z,99.90
2023-03-02T07:15:41.452Z,99.90
2023-03-02T07:18:08.113Z,99.90
2023-03-02T07:20:34.965Z,99.90
2023-03-02T07:23:01.710Z,99.90
2023-03-02T07:25:28.385Z,99.90
2023-03-02T07:27:55.090Z,99.90
2023-03-02T07:30:21.928Z,99.90
2023-03-02T07:32:48.764Z,99.90
2023-03-02T07:35:17.036Z,99.90
2023-03-02T07:37:44.305Z,99.90
2023-03-02T07:40:11.749Z,99.90
2023-03-02T07:42:38.935Z,99.90
2023-03-02T07:45:06.085Z,99.90
2023-03-02T07:47:32.711Z,99.90
2023-03-02T07:49:59.357Z,99.90
2023-03-02T07:52:26.034Z,99.90
2023-03-02T07:54:52.728Z,99.90
2023-03-02T07:57:19.356Z,99.90
2023-03-02T07:59:45.986Z,99.90
2023-03-02T08:02:14.423Z,99.90
2023-03-02T08:04:41.393Z,99.90
2023-03-02T08:07:08.022Z,99.90
2023-03-02T08:09:34.933Z,99.90
2023-03-02T08:12:01.546Z,99.90
2023-03-02T08:14:28.205Z,99.90
2023-03-02T08:16:54.867Z,99.90
2023-03-02T08:19:21.501Z,99.90
2023-03-02T08:21:48.158Z,99.90
2023-03-02T08:24:14.789Z,99.90
2023-03-02T08:26:41.419Z,99.90
2023-03-02T08:29:08.070Z,99.90
2023-03-02T08:31:35.079Z,99.90
2023-03-02T08:34:03.627Z,99.90
2023-03-02T08:36:30.366Z,99.90
2023-03-02T08:38:57.092Z,99.90
2023-03-02T08:41:24.260Z,99.90
2023-03-02T08:43:54.117Z,99.90
2023-03-02T08:46:21.045Z,99.90
2023-03-02T08:48:48.508Z,99.90
2023-03-02T08:51:22.929Z,99.90
2023-03-02T08:53:50.551Z,99.90
2023-03-02T08:56:17.207Z,99.90
2023-03-02T08:58:43.834Z,99.90
2023-03-02T09:01:15.147Z,99.90
2023-03-02T09:03:41.979Z,99.90
2023-03-02T09:06:08.612Z,99.90
2023-03-02T09:08:35.340Z,99.90
2023-03-02T09:11:01.982Z,99.90
2023-03-02T09:13:28.646Z,99.90
2023-03-02T09:15:55.345Z,99.90
2023-03-02T09:18:21.990Z,99.90
2023-03-02T09:20:52.161Z,99.90
2023-03-02T09:23:19.289Z,99.90
2023-03-02T09:25:47.680Z,99.90
2023-03-02T09:28:14.611Z,99.90
2023-03-02T09:30:41.453Z,99.90
2023-03-02T09:33:08.176Z,99.90
2023-03-02T09:35:34.904Z,99.90
2023-03-02T09:38:01.666Z,99.90
2023-03-02T09:40:29.096Z,99.90
2023-03-02T09:43:15.918Z,99.90
2023-03-02T09:46:01.944Z,99.90
2023-03-02T09:48:37.803Z,99.90
2023-03-02T09:51:04.509Z,99.90
2023-03-02T09:53:34.891Z,99.90
2023-03-02T09:56:02.374Z,99.90
2023-03-02T09:58:35.533Z,99.90
2023-03-02T10:01:04.287Z,99.90
2023-03-02T10:03:36.783Z,99.90
2023-03-02T10:06:03.568Z,99.90
2023-03-02T10:08:34.166Z,99.90
2023-03-02T10:11:10.161Z,99.90
2023-03-02T10:13:47.619Z,99.90
2023-03-02T10:16:17.600Z,99.90
2023-03-02T10:19:06.497Z,99.90
2023-03-02T10:21:33.117Z,99.90
2023-03-02T10:24:03.904Z,99.90
2023-03-02T10:26:41.317Z,99.90
2023-03-02T10:29:10.941Z,99.90
2023-03-02T10:31:39.855Z,99.90
2023-03-02T10:34:09.942Z,99.90
2023-03-02T10:36:40.869Z,99.90
2023-03-02T10:39:13.085Z,99.90
2023-03-02T10:41:43.091Z,99.90
2023-03-02T10:44:12.814Z,99.90
2023-03-02T10:46:46.356Z,99.90
2023-03-02T10:49:45.721Z,99.90
2023-03-02T10:52:13.401Z,99.90
2023-03-02T10:54:40.152Z,99.90
2023-03-02T10:57:24.946Z,99.90
2023-03-02T10:59:51.909Z,99.90
2023-03-02T11:02:27.486Z,99.20
2023-03-02T11:04:57.617Z,98.80
2023-03-02T11:07:28.676Z,99.70
2023-03-02T11:10:05.143Z,98.20
2023-03-02T11:12:32.646Z,98.20
2023-03-02T11:15:17.833Z,98.40
2023-03-02T11:17:46.005Z,97.20
2023-03-02T11:20:17.708Z,97.10
2023-03-02T11:22:56.653Z,96.70
2023-03-02T11:25:29.506Z,97.60
2023-03-02T11:27:59.664Z,96.70
2023-03-02T11:30:27.119Z,95.90
2023-03-02T11:33:08.275Z,95.10
2023-03-02T11:35:51.056Z,94.90
2023-03-02T11:38:32.609Z,95.70
2023-03-02T11:41:05.442Z,92.80
2023-03-02T11:43:32.783Z,92.70
2023-03-02T11:46:06.670Z,93.00
2023-03-02T11:48:38.512Z,92.60
2023-03-02T11:51:06.828Z,92.50
2023-03-02T11:53:39.417Z,92.90
2023-03-02T11:56:06.571Z,93.30
2023-03-02T11:58:34.201Z,90.40
2023-03-02T12:01:01.797Z,89.70
2023-03-02T12:03:31.499Z,89.70
2023-03-02T12:06:07.195Z,89.50
2023-03-02T12:08:37.140Z,86.90
2023-03-02T12:11:09.050Z,88.70
2023-03-02T12:13:35.682Z,86.40
2023-03-02T12:16:02.868Z,89.30
2023-03-02T12:19:04.859Z,88.50
2023-03-02T12:21:39.062Z,84.80
2023-03-02T12:24:06.316Z,85.40
2023-03-02T12:26:35.403Z,83.10
2023-03-02T12:29:11.596Z,83.40
2023-03-02T12:31:45.787Z,83.00
2023-03-02T12:34:25.832Z,84.40
2023-03-02T12:36:54.605Z,82.70
2023-03-02T12:39:21.276Z,85.10
2023-03-02T12:42:00.455Z,85.00
2023-03-02T12:44:33.761Z,81.60
2023-03-02T12:47:02.952Z,81.10
2023-03-02T12:49:51.171Z,79.30
2023-03-02T12:52:24.119Z,82.10
2023-03-02T12:54:59.468Z,83.90
2023-03-02T12:57:26.155Z,80.30
2023-03-02T12:59:53.702Z,80.40
2023-03-02T13:02:21.891Z,79.40
2023-03-02T13:04:52.546Z,79.80
2023-03-02T13:07:20.197Z,80.00
2023-03-02T13:09:56.632Z,79.60
2023-03-02T13:12:25.273Z,79.80
2023-03-02T13:14:54.211Z,80.00
2023-03-02T13:17:22.597Z,79.90
2023-03-02T13:19:50.400Z,78.10
2023-03-02T13:22:17.272Z,78.50
2023-03-02T13:24:45.864Z,81.10
2023-03-02T13:27:17.078Z,81.90
2023-03-02T13:29:43.852Z,79.60
2023-03-02T13:32:24.304Z,78.20
2023-03-02T13:34:52.268Z,79.00
2023-03-02T13:37:23.441Z,77.10
2023-03-02T13:40:00.542Z,77.60
2023-03-02T13:42:40.612Z,78.20
2023-03-02T13:45:25.508Z,77.10
2023-03-02T13:47:52.969Z,77.80
2023-03-02T13:50:23.886Z,76.30
2023-03-02T13:52:51.329Z,76.70
2023-03-02T13:55:19.783Z,75.30
2023-03-02T13:57:47.235Z,74.90
2023-03-02T14:00:20.340Z,75.60
2023-03-02T14:02:48.676Z,74.20
2023-03-02T14:05:19.498Z,75.60
2023-03-02T14:07:46.639Z,77.00
2023-03-02T14:10:14.552Z,77.20
2023-03-02T14:12:42.539Z,76.20
2023-03-02T14:15:14.747Z,78.60
2023-03-02T14:17:42.480Z,76.20
2023-03-02T14:20:13.165Z,75.50
2023-03-02T14:22:39.995Z,75.10
2023-03-02T14:25:07.119Z,76.70
2023-03-02T14:27:33.892Z,77.40
2023-03-02T14:30:00.880Z,77.10
2023-03-02T14:32:28.209Z,77.10
2023-03-02T14:34:54.908Z,76.70
2023-03-02T14:37:24.604Z,78.10
2023-03-02T14:39:54.202Z,78.30
2023-03-02T14:42:22.126Z,79.10
2023-03-02T14:44:49.563Z,78.30
2023-03-02T14:47:19.033Z,79.40
2023-03-02T14:49:45.893Z,79.50
2023-03-02T14:52:15.593Z,80.80
2023-03-02T14:54:51.308Z,79.70
2023-03-02T14:57:22.368Z,80.10
2023-03-02T14:59:49.173Z,80.30
2023-03-02T15:02:25.204Z,79.80
2023-03-02T15:04:56.016Z,81.20
2023-03-02T15:07:24.146Z,79.10
2023-03-02T15:09:50.799Z,79.90
2023-03-02T15:12:17.431Z,79.00
2023-03-02T15:14:44.076Z,81.90
2023-03-02T15:17:10.960Z,79.90
2023-03-02T15:19:37.639Z,80.60
2023-03-02T15:22:04.529Z,81.00
2023-03-02T15:24:33.219Z,80.60
2023-03-02T15:27:00.262Z,80.20
2023-03-02T15:29:26.918Z,80.90
2023-03-02T15:31:53.784Z,81.60
2023-03-02T15:34:20.573Z,82.10
2023-03-02T15:36:47.204Z,82.60
2023-03-02T15:39:14.538Z,82.40
2023-03-02T15:41:42.342Z,83.80
2023-03-02T15:44:15.772Z,83.40
2023-03-02T15:46:42.448Z,83.30
2023-03-02T15:49:09.378Z,83.30
2023-03-02T15:51:36.012Z,84.30
2023-03-02T15:54:02.676Z,84.90
2023-03-02T15:56:38.851Z,85.90
2023-03-02T15:59:10.481Z,85.80
2023-03-02T16:01:37.240Z,85.40
2023-03-02T16:04:03.903Z,85.50
2023-03-02T16:06:37.585Z,85.80
2023-03-02T16:09:04.554Z,85.30
2023-03-02T16:11:31.183Z,84.80
2023-03-02T16:13:57.860Z,85.60
2023-03-02T16:16:24.616Z,85.80
2023-03-02T16:18:55.518Z,87.00
2023-03-02T16:21:22.748Z,86.50
2023-03-02T16:23:49.395Z,87.50
2023-03-02T16:26:18.375Z,88.80
2023-03-02T16:28:45.361Z,88.50
2023-03-02T16:31:13.660Z,89.90
2023-03-02T16:33:40.788Z,90.70
2023-03-02T16:36:08.207Z,90.00
2023-03-02T16:38:36.818Z,91.40
2023-03-02T16:41:04.496Z,91.30
2023-03-02T16:43:31.228Z,90.00
2023-03-02T16:45:57.988Z,91.80
2023-03-02T16:48:24.656Z,92.00
2023-03-02T16:50:57.832Z,91.90
2023-03-02T16:53:24.595Z,92.30
2023-03-02T16:55:51.305Z,92.90
2023-03-02T16:58:17.980Z,94.70
2023-03-02T17:00:44.705Z,94.60
2023-03-02T17:03:11.634Z,94.10
2023-03-02T17:05:42.586Z,94.90
2023-03-02T17:08:13.193Z,95.50
2023-03-02T17:10:40.342Z,95.30
2023-03-02T17:13:07.048Z,95.40
2023-03-02T17:15:34.153Z,97.10
2023-03-02T17:18:04.498Z,97.30
2023-03-02T17:20:31.913Z,96.00
2023-03-02T17:22:59.280Z,96.60
2023-03-02T17:25:26.098Z,96.70
2023-03-02T17:27:53.628Z,97.40
2023-03-02T17:30:20.837Z,97.10
2023-03-02T17:32:48.426Z,96.40
2023-03-02T17:35:15.861Z,96.00
2023-03-02T17:37:42.690Z,96.50
2023-03-02T17:40:12.836Z,96.60
2023-03-02T17:42:39.494Z,96.90
2023-03-02T17:45:06.780Z,96.60
2023-03-02T17:47:33.468Z,95.60
2023-03-02T17:50:00.998Z,96.70
2023-03-02T17:52:27.749Z,97.10
2023-03-02T17:54:54.458Z,97.20
2023-03-02T17:57:22.645Z,97.30
2023-03-02T17:59:50.432Z,97.00
2023-03-02T18:02:17.609Z,97.00
2023-03-02T18:04:45.654Z,97.00
2023-03-02T18:07:12.526Z,96.90
2023-03-02T18:09:39.363Z,97.20
2023-03-02T18:12:06.353Z,97.60
2023-03-02T18:14:33.076Z,98.00
2023-03-02T18:16:59.756Z,98.50
2023-03-02T18:19:26.413Z,98.40
2023-03-02T18:21:53.332Z,96.90
2023-03-02T18:24:19.969Z,95.10
2023-03-02T18:26:46.654Z,96.60
2023-03-02T18:29:13.311Z,97.20
2023-03-02T18:31:39.951Z,97.60
2023-03-02T18:34:08.791Z,97.80
2023-03-02T18:36:35.447Z,97.90
2023-03-02T18:39:05.835Z,98.30
2023-03-02T18:41:32.731Z,98.40
2023-03-02T18:44:01.263Z,98.30
2023-03-02T18:46:29.388Z,98.20
2023-03-02T18:48:56.512Z,97.50
2023-03-02T18:51:24.250Z,97.90
2023-03-02T18:53:51.443Z,97.80
2023-03-02T18:56:18.496Z,97.60
2023-03-02T18:58:45.265Z,97.70
2023-03-02T19:01:12.464Z,98.80
2023-03-02T19:03:43.170Z,99.40
2023-03-02T19:06:10.048Z,98.90
2023-03-02T19:08:38.032Z,99.20
2023-03-02T19:11:05.219Z,99.10
2023-03-02T19:13:33.371Z,99.30
2023-03-02T19:16:02.033Z,99.50
2023-03-02T19:18:29.624Z,99.80
2023-03-02T19:20:57.526Z,99.30
2023-03-02T19:23:24.863Z,99.40
2023-03-02T19:25:51.844Z,99.80
2023-03-02T19:28:18.481Z,99.90
2023-03-02T19:30:45.224Z,99.90
2023-03-02T19:33:11.875Z,99.90
2023-03-02T19:35:38.805Z,99.80
2023-03-02T19:38:06.198Z,99.30
2023-03-02T19:40:34.528Z,99.10
2023-03-02T19:43:01.364Z,98.70
2023-03-02T19:45:29.648Z,98.80
2023-03-02T19:47:57.814Z,99.30
2023-03-02T19:50:25.240Z,99.70
2023-03-02T19:52:52.500Z,99.90
2023-03-02T19:55:20.128Z,99.90
2023-03-02T19:57:51.251Z,99.80
2023-03-02T20:00:19.388Z,99.90
2023-03-02T20:02:47.199Z,99.90
2023-03-02T20:05:14.517Z,99.90
2023-03-02T20:07:41.998Z,99.90
2023-03-02T20:10:09.400Z,99.90
2023-03-02T20:12:36.833Z,99.50
2023-03-02T20:15:04.680Z,99.60
2023-03-02T20:17:31.344Z,99.90
2023-03-02T20:19:58.567Z,99.90
2023-03-02T20:22:25.984Z,99.90
2023-03-02T20:24:52.910Z,99.90
2023-03-02T20:27:21.258Z,99.90
2023-03-02T20:29:48.173Z,99.90
2023-03-02T20:32:15.198Z,99.90
2023-03-02T20:34:42.989Z,99.80
2023-03-02T20:37:10.012Z,99.90
2023-03-02T20:39:38.196Z,99.70
2023-03-02T20:42:05.525Z,99.60
2023-03-02T20:44:32.605Z,99.80
2023-03-02T20:47:01.226Z,99.90
2023-03-02T20:49:29.238Z,99.90
2023-03-02T20:51:59.247Z,99.90
2023-03-02T20:54:28.925Z,99.90
2023-03-02T20:56:55.603Z,99.90
2023-03-02T20:59:24.222Z,99.90
2023-03-02T21:01:51.374Z,99.90
2023-03-02T21:04:18.155Z,99.80
2023-03-02T21:06:46.126Z,99.90
2023-03-02T21:09:12.890Z,99.90
2023-03-02T21:11:39.920Z,99.90
2023-03-02T21:14:06.752Z,99.80
2023-03-02T21:16:36.096Z,99.70
2023-03-02T21:19:06.028Z,99.90
2023-03-02T21:21:41.364Z,99.90
2023-03-02T21:24:09.777Z,99.90
2023-03-02T21:26:36.904Z,99.90
2023-03-02T21:29:05.194Z,99.90
2023-03-02T21:31:32.569Z,99.90
2023-03-02T21:34:00.695Z,99.90
2023-03-02T21:36:27.648Z,99.90
2023-03-02T21:38:54.738Z,99.90
2023-03-02T21:41:21.654Z,99.90
2023-03-02T21:43:48.764Z,99.90
2023-03-02T21:46:17.239Z,99.90
2023-03-02T21:48:44.216Z,99.90
2023-03-02T21:51:11.418Z,99.90
2023-03-02T21:53:38.232Z,99.90
2023-03-02T21:56:05.439Z,99.90
2023-03-02T21:58:32.064Z,99.90
2023-03-02T22:00:58.712Z,99.90
2023-03-02T22:03:25.369Z,99.90
2023-03-02T22:05:52.053Z,99.90
2023-03-02T22:08:19.577Z,99.90
2023-03-02T22:10:47.462Z,99.90
2023-03-02T22:13:19.846Z,99.90
2023-03-02T22:15:47.380Z,99.90
2023-03-02T22:18:15.242Z,99.90
2023-03-02T22:20:42.721Z,99.90
2023-03-02T22:23:13.420Z,99.90
2023-03-02T22:25:40.460Z,99.90
2023-03-02T22:28:23.543Z,99.90
2023-03-02T22:30:53.561Z,99.90
2023-03-02T22:33:21.625Z,99.90
2023-03-02T22:35:49.516Z,99.90
2023-03-02T22:38:26.781Z,99.90
2023-03-02T22:40:54.141Z,99.90
2023-03-02T22:43:30.925Z,99.90
2023-03-02T22:46:15.920Z,99.90
2023-03-02T22:48:52.824Z,99.90
2023-03-02T22:51:23.951Z,99.90
2023-03-02T22:53:51.853Z,99.90
2023-03-02T22:56:21.393Z,99.90
2023-03-02T22:58:49.245Z,99.90
2023-03-02T23:01:21.116Z,99.90
2023-03-02T23:03:55.001Z,99.90
2023-03-02T23:06:31.686Z,99.90
2023-03-02T23:09:02.302Z,99.90
2023-03-02T23:11:31.584Z,99.90
2023-03-02T23:14:00.249Z,99.90
2023-03-02T23:16:28.349Z,99.90
2023-03-02T23:18:56.265Z,99.90
2023-03-02T23:21:22.932Z,99.90
2023-03-02T23:23:50.450Z,99.90
2023-03-02T23:26:19.200Z,99.90
2023-03-02T23:28:47.305Z,99.90
2023-03-02T23:31:14.710Z,99.90
2023-03-02T23:33:41.569Z,99.90
2023-03-02T23:36:08.677Z,99.90
2023-03-02T23:38:35.305Z,99.90
2023-03-02T23:41:01.950Z,99.90
2023-03-02T23:43:28.618Z,99.90
2023-03-02T23:45:56.128Z,99.90
2023-03-02T23:48:22.802Z,99.90
2023-03-02T23:50:49.476Z,99.90
2023-03-02T23:53:16.116Z,99.90
2023-03-02T23:55:45.220Z,99.90
2023-03-02T23:58:11.915Z,99.90
